Time;durP1;ratioP1;P1;durP2;ratioP2;P2;SDS_P1;SDS_P2;PMS_P1;PMS_P2;Temp;Humidity;BMP_temperature;BMP_pressure;BME280_temperature;BME280_humidity;BME280_pressure;Samples;Min_cycle;Max_cycle;Signal;HPM_P1;HPM_P2
2023/06/14 00:01:49;;;;;;;6.00;3.00;;;;;;;;;;5070811;28;20224;-25
2023/06/14 00:04:17;;;;;;;2.93;2.70;;;;;;;;;;5083471;28;20205;-25
2023/06/14 00:06:45;;;;;;;3.30;3.00;;;;;;;;;;5080040;28;20199;-26
2023/06/14 00:09:12;;;;;;;9.90;3.33;;;;;;;;;;5082871;28;20260;-24
2023/06/14 00:11:40;;;;;;;3.10;2.80;;;;;;;;;;5088447;28;20281;-25
2023/06/14 00:14:08;;;;;;;3.70;2.70;;;;;;;;;;5077783;28;20208;-27
2023/06/14 00:16:36;;;;;;;3.47;3.17;;;;;;;;;;5076823;28;20216;-25
2023/06/14 00:19:04;;;;;;;3.13;2.83;;;;;;;;;;5074843;28;20237;-27
2023/06/14 00:21:31;;;;;;;4.57;2.90;;;;;;;;;;5074267;28;20221;-24
2023/06/14 00:23:59;;;;;;;3.73;3.03;;;;;;;;;;5074970;28;20203;-26
2023/06/14 00:26:26;;;;;;;3.30;2.83;;;;;;;;;;5087791;28;20294;-27
2023/06/14 00:28:53;;;;;;;6.50;2.70;;;;;;;;;;5088250;28;20262;-24
2023/06/14 00:31:22;;;;;;;3.23;2.93;;;;;;;;;;5090145;28;20242;-25
2023/06/14 00:33:49;;;;;;;2.80;2.50;;;;;;;;;;5085292;28;20313;-27
2023/06/14 00:36:16;;;;;;;4.97;3.43;;;;;;;;;;5083473;28;20710;-29
2023/06/14 00:38:44;;;;;;;3.83;3.07;;;;;;;;;;5075196;28;20689;-25
2023/06/14 00:41:11;;;;;;;4.53;2.90;;;;;;;;;;5083251;28;20232;-27
2023/06/14 00:43:38;;;;;;;5.33;2.97;;;;;;;;;;5086627;28;20212;-26
2023/06/14 00:46:05;;;;;;;6.27;3.00;;;;;;;;;;5087587;28;20200;-29
2023/06/14 00:48:34;;;;;;;3.60;2.80;;;;;;;;;;5087859;28;20669;-26
2023/06/14 00:51:03;;;;;;;6.27;3.40;;;;;;;;;;5089809;28;20220;-26
2023/06/14 00:53:33;;;;;;;3.20;2.77;;;;;;;;;;5085821;28;20277;-24
2023/06/14 00:56:00;;;;;;;3.90;3.00;;;;;;;;;;5084160;28;20241;-26
2023/06/14 00:58:28;;;;;;;3.30;2.77;;;;;;;;;;5084827;28;20208;-26
2023/06/14 01:00:55;;;;;;;4.00;2.80;;;;;;;;;;5085441;28;20240;-27
2023/06/14 01:03:23;;;;;;;2.90;2.70;;;;;;;;;;5083241;28;20468;-25
2023/06/14 01:05:54;;;;;;;3.20;2.90;;;;;;;;;;5089538;28;20293;-27
2023/06/14 01:08:26;;;;;;;3.13;2.60;;;;;;;;;;5085395;28;20199;-26
2023/06/14 01:10:55;;;;;;;4.47;3.23;;;;;;;;;;5088212;28;20412;-26
2023/06/14 01:13:23;;;;;;;2.57;2.37;;;;;;;;;;5079518;28;20201;-25
2023/06/14 01:15:52;;;;;;;3.87;2.70;;;;;;;;;;5090184;28;20196;-26
2023/06/14 01:18:19;;;;;;;3.63;3.30;;;;;;;;;;5078277;28;20232;-26
2023/06/14 01:20:49;;;;;;;3.60;3.10;;;;;;;;;;5070722;28;20224;-26
2023/06/14 01:23:17;;;;;;;4.57;3.30;;;;;;;;;;5070144;28;20220;-27
2023/06/14 01:25:45;;;;;;;3.73;3.00;;;;;;;;;;5087706;28;20202;-28
2023/06/14 01:28:14;;;;;;;7.40;3.20;;;;;;;;;;5085591;28;20209;-23
2023/06/14 01:30:44;;;;;;;3.03;2.73;;;;;;;;;;5089828;28;20231;-27
2023/06/14 01:33:12;;;;;;;3.97;3.10;;;;;;;;;;5079642;28;20231;-24
2023/06/14 01:35:39;;;;;;;4.53;2.67;;;;;;;;;;5089511;28;20232;-24
2023/06/14 01:38:08;;;;;;;5.33;2.73;;;;;;;;;;5075786;28;20617;-28
2023/06/14 01:40:36;;;;;;;3.43;3.13;;;;;;;;;;5086976;28;20222;-26
2023/06/14 01:43:05;;;;;;;3.03;2.53;;;;;;;;;;5078007;28;20199;-26
2023/06/14 01:45:32;;;;;;;2.93;2.63;;;;;;;;;;5071218;28;20254;-24
2023/06/14 01:47:59;;;;;;;3.30;2.90;;;;;;;;;;5077736;28;20242;-24
2023/06/14 01:50:30;;;;;;;4.07;2.97;;;;;;;;;;5084463;28;20645;-26
2023/06/14 01:52:57;;;;;;;5.27;3.03;;;;;;;;;;5081833;28;20205;-27
2023/06/14 01:55:24;;;;;;;5.57;3.23;;;;;;;;;;5095834;28;20222;-26
2023/06/14 01:57:53;;;;;;;3.40;3.10;;;;;;;;;;5080953;28;20217;-25
2023/06/14 02:00:23;;;;;;;2.73;2.53;;;;;;;;;;5073922;28;20583;-29
2023/06/14 02:02:50;;;;;;;3.27;3.07;;;;;;;;;;5083310;28;20661;-28
2023/06/14 02:05:18;;;;;;;3.27;2.97;;;;;;;;;;5079004;28;20212;-27
2023/06/14 02:07:46;;;;;;;3.50;3.20;;;;;;;;;;5077372;28;20251;-27
2023/06/14 02:10:13;;;;;;;4.07;3.27;;;;;;;;;;5091818;28;20231;-25
2023/06/14 02:12:40;;;;;;;3.87;3.00;;;;;;;;;;5092340;28;20205;-27
2023/06/14 02:15:09;;;;;;;3.80;2.77;;;;;;;;;;5073168;28;20466;-24
2023/06/14 02:17:37;;;;;;;3.40;2.97;;;;;;;;;;5080735;28;20215;-27
2023/06/14 02:20:04;;;;;;;3.43;3.13;;;;;;;;;;5087770;28;20284;-26
2023/06/14 02:22:32;;;;;;;7.80;3.20;;;;;;;;;;5080410;28;20295;-25
2023/06/14 02:24:59;;;;;;;3.50;3.10;;;;;;;;;;5082935;28;20199;-25
2023/06/14 02:27:26;;;;;;;3.07;2.83;;;;;;;;;;5078584;28;20204;-27
2023/06/14 02:29:54;;;;;;;3.40;3.03;;;;;;;;;;5072282;28;20226;-24
2023/06/14 02:32:22;;;;;;;3.87;3.10;;;;;;;;;;5082783;28;20207;-26
2023/06/14 02:34:50;;;;;;;3.07;2.87;;;;;;;;;;5088789;28;20216;-27
2023/06/14 02:37:17;;;;;;;3.43;3.13;;;;;;;;;;5078425;28;20250;-26
2023/06/14 02:39:44;;;;;;;3.30;2.90;;;;;;;;;;5086198;28;20558;-27
2023/06/14 02:42:11;;;;;;;3.83;3.40;;;;;;;;;;5084227;28;20218;-26
2023/06/14 02:44:39;;;;;;;3.77;3.33;;;;;;;;;;5075778;28;20661;-26
2023/06/14 02:47:06;;;;;;;3.87;3.30;;;;;;;;;;5081248;28;20191;-26
2023/06/14 02:49:34;;;;;;;3.30;3.00;;;;;;;;;;5082199;28;20694;-24
2023/06/14 02:52:02;;;;;;;4.20;2.93;;;;;;;;;;5092512;28;20671;-26
2023/06/14 02:54:29;;;;;;;4.57;3.30;;;;;;;;;;5088257;28;20211;-24
2023/06/14 02:56:56;;;;;;;5.80;3.20;;;;;;;;;;5085596;28;20234;-27
2023/06/14 02:59:25;;;;;;;3.23;2.90;;;;;;;;;;5086563;28;20197;-24
2023/06/14 03:01:52;;;;;;;2.80;2.60;;;;;;;;;;5090396;28;20234;-26
2023/06/14 03:04:19;;;;;;;6.10;3.37;;;;;;;;;;5091837;28;20201;-26
2023/06/14 03:06:50;;;;;;;4.00;3.00;;;;;;;;;;5080794;28;20562;-24
2023/06/14 03:09:17;;;;;;;5.47;3.00;;;;;;;;;;5083373;28;20268;-27
2023/06/14 03:11:44;;;;;;;3.20;2.93;;;;;;;;;;5082779;28;20239;-26
2023/06/14 03:14:13;;;;;;;3.23;2.93;;;;;;;;;;5072368;28;20214;-25
2023/06/14 03:16:41;;;;;;;3.10;2.80;;;;;;;;;;5072472;28;20303;-27
2023/06/14 03:19:08;;;;;;;3.77;3.20;;;;;;;;;;5077139;28;20301;-25
2023/06/14 03:21:35;;;;;;;4.37;3.30;;;;;;;;;;5081540;28;20811;-24
2023/06/14 03:24:04;;;;;;;7.07;3.60;;;;;;;;;;5079838;28;20240;-24
2023/06/14 03:26:34;;;;;;;3.80;3.50;;;;;;;;;;5083572;28;20203;-27
2023/06/14 03:29:01;;;;;;;4.33;3.60;;;;;;;;;;5088384;28;20225;-26
2023/06/14 03:31:32;;;;;;;3.23;2.93;;;;;;;;;;5091977;28;20225;-24
2023/06/14 03:33:59;;;;;;;3.57;3.27;;;;;;;;;;5085849;28;20274;-27
2023/06/14 03:36:27;;;;;;;3.07;2.87;;;;;;;;;;5081526;28;20207;-26
2023/06/14 03:38:55;;;;;;;3.50;3.20;;;;;;;;;;5339403;22;20229;-26
2023/06/14 03:41:23;;;;;;;3.67;3.13;;;;;;;;;;5094462;28;20229;-28
2023/06/14 03:43:50;;;;;;;4.53;3.57;;;;;;;;;;5073752;28;20195;-28
2023/06/14 03:46:17;;;;;;;5.30;3.60;;;;;;;;;;5082174;28;20280;-28
2023/06/14 03:48:45;;;;;;;4.37;3.40;;;;;;;;;;5075163;28;20198;-28
2023/06/14 03:51:19;;;;;;;3.80;3.40;;;;;;;;;;5084974;28;20224;-28
2023/06/14 03:53:46;;;;;;;3.57;3.23;;;;;;;;;;5072627;28;20212;-28
2023/06/14 03:56:13;;;;;;;4.60;3.20;;;;;;;;;;5082801;28;20551;-32
2023/06/14 03:58:41;;;;;;;4.13;3.70;;;;;;;;;;5073888;28;20215;-29
2023/06/14 04:01:11;;;;;;;5.43;3.57;;;;;;;;;;5076143;28;20233;-30
2023/06/14 04:03:40;;;;;;;5.03;3.73;;;;;;;;;;5072477;28;20212;-29
2023/06/14 04:06:07;;;;;;;4.40;3.80;;;;;;;;;;5078403;28;20198;-28
2023/06/14 04:08:35;;;;;;;5.87;3.93;;;;;;;;;;5073647;28;20279;-31
2023/06/14 04:11:02;;;;;;;4.23;3.83;;;;;;;;;;5104134;28;20254;-28
2023/06/14 04:13:29;;;;;;;4.67;3.47;;;;;;;;;;5085164;28;20211;-27
2023/06/14 04:15:58;;;;;;;4.23;3.47;;;;;;;;;;5073465;28;20201;-27
2023/06/14 04:18:26;;;;;;;5.10;3.30;;;;;;;;;;5076025;28;20230;-25
2023/06/14 04:20:54;;;;;;;4.17;3.77;;;;;;;;;;5090701;28;20232;-30
2023/06/14 04:23:21;;;;;;;4.07;3.53;;;;;;;;;;5077105;28;20239;-29
2023/06/14 04:25:49;;;;;;;3.90;3.40;;;;;;;;;;5089040;28;20304;-28
2023/06/14 04:28:17;;;;;;;4.37;3.30;;;;;;;;;;5078292;28;20266;-30
2023/06/14 04:30:44;;;;;;;4.97;3.63;;;;;;;;;;5074357;28;20222;-29
2023/06/14 04:33:13;;;;;;;4.17;3.77;;;;;;;;;;5080002;28;20220;-27
2023/06/14 04:35:40;;;;;;;4.17;3.77;;;;;;;;;;5088437;28;20202;-30
2023/06/14 04:38:09;;;;;;;4.20;3.03;;;;;;;;;;5082239;28;20314;-27
2023/06/14 04:40:42;;;;;;;3.97;3.47;;;;;;;;;;5077807;28;20224;-28
2023/06/14 04:43:12;;;;;;;3.73;3.33;;;;;;;;;;5085960;28;20286;-28
2023/06/14 04:45:39;;;;;;;3.60;3.30;;;;;;;;;;5093970;28;20209;-32
2023/06/14 04:48:07;;;;;;;6.30;3.47;;;;;;;;;;5084360;28;20203;-27
2023/06/14 04:50:36;;;;;;;4.33;3.40;;;;;;;;;;5073359;28;20271;-28
2023/06/14 04:53:03;;;;;;;5.17;3.00;;;;;;;;;;5075518;28;20210;-31
2023/06/14 04:55:30;;;;;;;5.53;3.40;;;;;;;;;;5097794;28;20200;-31
2023/06/14 04:57:58;;;;;;;3.70;3.40;;;;;;;;;;5079487;28;20306;-30
2023/06/14 05:00:25;;;;;;;5.93;3.70;;;;;;;;;;5073125;28;20253;-32
2023/06/14 05:02:53;;;;;;;3.70;3.03;;;;;;;;;;5085971;28;20212;-30
2023/06/14 05:05:20;;;;;;;4.53;3.30;;;;;;;;;;5086859;28;20302;-30
2023/06/14 05:07:48;;;;;;;3.87;3.30;;;;;;;;;;5072349;28;20201;-29
2023/06/14 05:10:16;;;;;;;4.50;3.40;;;;;;;;;;5086338;28;20221;-27
2023/06/14 05:12:43;;;;;;;4.30;3.80;;;;;;;;;;5073630;28;20201;-28
2023/06/14 05:15:11;;;;;;;4.47;3.87;;;;;;;;;;5093323;28;20200;-29
2023/06/14 05:17:40;;;;;;;5.07;4.00;;;;;;;;;;5092447;28;20734;-30
2023/06/14 05:20:09;;;;;;;4.20;3.80;;;;;;;;;;5098424;28;20237;-29
2023/06/14 05:22:37;;;;;;;4.47;3.93;;;;;;;;;;5092350;28;20203;-30
2023/06/14 05:25:05;;;;;;;5.53;3.80;;;;;;;;;;5094198;28;20195;-30
2023/06/14 05:27:35;;;;;;;5.10;3.80;;;;;;;;;;5088908;28;20289;-28
2023/06/14 05:30:03;;;;;;;6.70;3.60;;;;;;;;;;5092815;28;20223;-30
2023/06/14 05:32:31;;;;;;;6.40;3.93;;;;;;;;;;5099872;28;20206;-26
2023/06/14 05:34:58;;;;;;;4.07;3.67;;;;;;;;;;5091390;28;20573;-27
2023/06/14 05:37:25;;;;;;;5.73;4.40;;;;;;;;;;5077381;28;20207;-27
2023/06/14 05:39:52;;;;;;;4.70;3.67;;;;;;;;;;5101135;28;20205;-28
2023/06/14 05:42:21;;;;;;;4.10;3.70;;;;;;;;;;5091646;28;20207;-28
2023/06/14 05:44:48;;;;;;;5.47;4.13;;;;;;;;;;5076532;28;20200;-29
2023/06/14 05:47:15;;;;;;;4.53;4.13;;;;;;;;;;5081237;28;20199;-29
2023/06/14 05:49:42;;;;;;;6.50;4.30;;;;;;;;;;5080389;28;20254;-28
2023/06/14 05:52:11;;;;;;;6.33;4.47;;;;;;;;;;5082869;28;20216;-31
2023/06/14 05:54:38;;;;;;;7.10;4.00;;;;;;;;;;5083695;28;20204;-28
2023/06/14 05:57:06;;;;;;;5.90;4.70;;;;;;;;;;5079089;28;20619;-30
2023/06/14 05:59:34;;;;;;;5.37;3.97;;;;;;;;;;5087910;28;20269;-31
2023/06/14 06:02:01;;;;;;;4.70;3.83;;;;;;;;;;5094517;28;20199;-31
2023/06/14 06:04:28;;;;;;;4.90;4.30;;;;;;;;;;5101564;28;20205;-26
2023/06/14 06:06:55;;;;;;;6.18;4.10;;;;;;;;;;5082925;28;20286;-27
2023/06/14 06:09:23;;;;;;;4.70;4.20;;;;;;;;;;5088389;28;20196;-31
2023/06/14 06:11:50;;;;;;;5.00;4.03;;;;;;;;;;5097576;28;20227;-28
2023/06/14 06:14:17;;;;;;;4.83;4.23;;;;;;;;;;5072109;28;20197;-28
2023/06/14 06:16:45;;;;;;;5.37;4.13;;;;;;;;;;5072005;28;20193;-27
2023/06/14 06:19:12;;;;;;;4.47;3.67;;;;;;;;;;5090087;28;20224;-28
2023/06/14 06:21:39;;;;;;;11.77;3.80;;;;;;;;;;5091580;28;20217;-27
2023/06/14 06:24:07;;;;;;;6.70;3.77;;;;;;;;;;5085692;28;20204;-29
2023/06/14 06:26:34;;;;;;;5.43;3.73;;;;;;;;;;5091522;28;20254;-27
2023/06/14 06:29:01;;;;;;;4.33;3.93;;;;;;;;;;5086054;28;20197;-28
2023/06/14 06:31:28;;;;;;;5.53;3.73;;;;;;;;;;5089172;28;20230;-27
2023/06/14 06:33:56;;;;;;;5.07;4.03;;;;;;;;;;5083132;28;20546;-28
2023/06/14 06:36:24;;;;;;;5.00;4.23;;;;;;;;;;5084418;28;20802;-32
2023/06/14 06:38:51;;;;;;;6.18;3.63;;;;;;;;;;5081031;28;20220;-29
2023/06/14 06:41:18;;;;;;;4.57;3.80;;;;;;;;;;5107793;28;20567;-29
2023/06/14 06:43:45;;;;;;;4.55;3.78;;;;;;;;;;5085371;28;20197;-29
2023/06/14 06:46:13;;;;;;;5.00;3.80;;;;;;;;;;5073973;28;20201;-31
2023/06/14 06:48:40;;;;;;;4.15;3.75;;;;;;;;;;5085028;28;20194;-30
2023/06/14 06:51:08;;;;;;;6.70;3.40;;;;;;;;;;5095504;28;20226;-27
2023/06/14 06:53:36;;;;;;;3.95;3.55;;;;;;;;;;5093434;28;20651;-29
2023/06/14 06:56:03;;;;;;;4.78;3.38;;;;;;;;;;5090032;28;20220;-29
2023/06/14 06:58:30;;;;;;;3.60;3.30;;;;;;;;;;5082812;28;20216;-28
2023/06/14 07:00:57;;;;;;;4.55;3.70;;;;;;;;;;5095360;28;20316;-28
2023/06/14 07:03:24;;;;;;;5.63;3.35;;;;;;;;;;5096165;28;20649;-29
2023/06/14 07:05:51;;;;;;;5.50;3.47;;;;;;;;;;5085605;28;20202;-29
2023/06/14 07:08:20;;;;;;;6.35;3.58;;;;;;;;;;5090577;28;20198;-29
2023/06/14 07:10:47;;;;;;;4.15;3.75;;;;;;;;;;5097885;28;20227;-31
2023/06/14 07:13:14;;;;;;;4.40;3.25;;;;;;;;;;5082905;28;20196;-27
2023/06/14 07:15:41;;;;;;;4.35;2.92;;;;;;;;;;5075212;28;20204;-28
2023/06/14 07:18:09;;;;;;;4.80;3.60;;;;;;;;;;5088443;28;20201;-31
2023/06/14 07:20:38;;;;;;;3.83;3.13;;;;;;;;;;5082553;28;20323;-31
2023/06/14 07:23:05;;;;;;;2.80;2.60;;;;;;;;;;5073715;28;20208;-29
2023/06/14 07:25:35;;;;;;;3.67;3.25;;;;;;;;;;5107270;28;20208;-28
2023/06/14 07:28:02;;;;;;;4.53;2.95;;;;;;;;;;5090512;28;20632;-30
2023/06/14 07:30:29;;;;;;;3.05;2.80;;;;;;;;;;5095334;28;20230;-31
2023/06/14 07:32:57;;;;;;;3.53;2.95;;;;;;;;;;5093089;28;20211;-31
2023/06/14 07:35:24;;;;;;;2.65;2.45;;;;;;;;;;5087667;28;20199;-29
2023/06/14 07:37:51;;;;;;;3.50;2.80;;;;;;;;;;5076536;28;20210;-29
2023/06/14 07:40:18;;;;;;;3.60;2.92;;;;;;;;;;5086565;28;20232;-27
2023/06/14 07:42:46;;;;;;;3.78;2.90;;;;;;;;;;5093697;28;20205;-28
2023/06/14 07:45:15;;;;;;;3.50;2.80;;;;;;;;;;5094002;28;20208;-31
2023/06/14 07:47:42;;;;;;;3.63;2.70;;;;;;;;;;5085973;28;20217;-30
2023/06/14 07:50:09;;;;;;;6.47;2.42;;;;;;;;;;5093592;28;20254;-29
2023/06/14 07:52:36;;;;;;;3.58;3.15;;;;;;;;;;5076754;28;20196;-30
2023/06/14 07:55:03;;;;;;;3.63;2.80;;;;;;;;;;5098133;28;20208;-32
2023/06/14 07:57:31;;;;;;;5.40;3.25;;;;;;;;;;5077003;28;20295;-31
2023/06/14 07:59:59;;;;;;;6.22;4.07;;;;;;;;;;5092503;28;20216;-31
2023/06/14 08:02:26;;;;;;;5.38;3.17;;;;;;;;;;5089185;28;20210;-31
2023/06/14 08:04:54;;;;;;;3.03;2.72;;;;;;;;;;5082009;28;20204;-28
2023/06/14 08:07:21;;;;;;;3.05;2.53;;;;;;;;;;5073020;28;20232;-31
2023/06/14 08:09:48;;;;;;;3.13;2.80;;;;;;;;;;5080770;28;20210;-29
2023/06/14 08:12:15;;;;;;;10.45;3.75;;;;;;;;;;5084361;28;20199;-30
2023/06/14 08:14:43;;;;;;;4.00;3.22;;;;;;;;;;5093238;28;20232;-33
2023/06/14 08:17:12;;;;;;;3.60;2.63;;;;;;;;;;5095105;28;20360;-32
2023/06/14 08:19:39;;;;;;;2.92;2.70;;;;;;;;;;5092288;28;20225;-31
2023/06/14 08:22:06;;;;;;;3.58;2.90;;;;;;;;;;5093231;28;20200;-29
2023/06/14 08:24:33;;;;;;;3.67;3.33;;;;;;;;;;5092272;28;20202;-28
2023/06/14 08:27:01;;;;;;;3.20;2.90;;;;;;;;;;5089100;28;20203;-29
2023/06/14 08:29:30;;;;;;;3.85;3.05;;;;;;;;;;5089009;28;20199;-30
2023/06/14 08:31:57;;;;;;;3.10;2.90;;;;;;;;;;5092061;28;20223;-31
2023/06/14 08:34:26;;;;;;;4.05;2.90;;;;;;;;;;5088215;28;20214;-31
2023/06/14 08:36:53;;;;;;;3.05;2.63;;;;;;;;;;5082540;28;20204;-28
2023/06/14 08:39:20;;;;;;;4.70;2.88;;;;;;;;;;5085577;28;20230;-30
2023/06/14 08:41:48;;;;;;;5.38;2.80;;;;;;;;;;5083321;28;20230;-32
2023/06/14 08:44:15;;;;;;;4.30;2.75;;;;;;;;;;5087610;28;20199;-27
2023/06/14 08:46:43;;;;;;;5.03;2.75;;;;;;;;;;5093565;28;20297;-30
2023/06/14 08:49:12;;;;;;;2.70;2.50;;;;;;;;;;5085805;28;20203;-32
2023/06/14 08:51:41;;;;;;;4.53;2.70;;;;;;;;;;5076367;28;20229;-32
2023/06/14 08:54:08;;;;;;;4.07;3.00;;;;;;;;;;5088426;28;20218;-31
2023/06/14 08:56:41;;;;;;;3.67;3.28;;;;;;;;;;5081557;28;20218;-32
2023/06/14 08:59:09;;;;;;;3.15;2.80;;;;;;;;;;5071774;28;20230;-30
2023/06/14 09:01:38;;;;;;;3.47;3.17;;;;;;;;;;5073159;28;20318;-31
2023/06/14 09:04:06;;;;;;;5.50;2.97;;;;;;;;;;5093301;28;20208;-29
2023/06/14 09:06:33;;;;;;;3.58;3.00;;;;;;;;;;5092804;28;20212;-28
2023/06/14 09:09:04;;;;;;;3.72;3.03;;;;;;;;;;5093411;28;20267;-30
2023/06/14 09:11:31;;;;;;;2.97;2.50;;;;;;;;;;5095996;28;20318;-31
2023/06/14 09:13:59;;;;;;;2.83;2.60;;;;;;;;;;5081320;28;20210;-33
2023/06/14 09:16:26;;;;;;;4.30;2.50;;;;;;;;;;5084090;28;20200;-29
2023/06/14 09:18:55;;;;;;;3.00;2.70;;;;;;;;;;5083408;28;20223;-31
2023/06/14 09:21:22;;;;;;;3.40;3.17;;;;;;;;;;5083635;28;20223;-31
2023/06/14 09:23:49;;;;;;;5.50;3.17;;;;;;;;;;5076004;28;20202;-30
2023/06/14 09:26:19;;;;;;;4.13;3.10;;;;;;;;;;5080428;28;20210;-33
2023/06/14 09:28:47;;;;;;;4.15;3.20;;;;;;;;;;5090502;28;20213;-30
2023/06/14 09:31:15;;;;;;;4.78;3.15;;;;;;;;;;5093539;28;20709;-28
2023/06/14 09:33:49;;;;;;;3.67;3.10;;;;;;;;;;5088716;28;20212;-30
2023/06/14 09:36:17;;;;;;;5.75;2.92;;;;;;;;;;5081278;28;20210;-31
2023/06/14 09:38:53;;;;;;;3.65;3.10;;;;;;;;;;5083181;28;20262;-29
2023/06/14 09:41:21;;;;;;;3.58;3.28;;;;;;;;;;5096282;28;20264;-31
2023/06/14 09:43:49;;;;;;;7.50;3.05;;;;;;;;;;5165789;23;20239;-31
2023/06/14 09:46:16;;;;;;;3.30;2.92;;;;;;;;;;5090286;28;20259;-28
2023/06/14 09:48:43;;;;;;;4.75;2.90;;;;;;;;;;5086196;28;20207;-33
2023/06/14 09:51:12;;;;;;;6.28;3.00;;;;;;;;;;5085409;28;20230;-31
2023/06/14 09:53:40;;;;;;;3.58;3.08;;;;;;;;;;5067795;28;20206;-29
2023/06/14 09:56:07;;;;;;;3.05;2.85;;;;;;;;;;5088330;28;20206;-30
2023/06/14 09:58:39;;;;;;;4.18;2.63;;;;;;;;;;5083137;28;20235;-31
2023/06/14 10:01:08;;;;;;;3.00;2.60;;;;;;;;;;5071563;28;20238;-31
2023/06/14 10:03:36;;;;;;;5.32;2.88;;;;;;;;;;5083667;28;20291;-31
2023/06/14 10:06:04;;;;;;;3.30;2.55;;;;;;;;;;5076368;28;20207;-29
2023/06/14 10:08:33;;;;;;;4.93;3.28;;;;;;;;;;5091976;28;20211;-32
2023/06/14 10:11:00;;;;;;;7.88;2.90;;;;;;;;;;5092170;28;20264;-32
2023/06/14 10:13:28;;;;;;;3.10;2.80;;;;;;;;;;5078402;28;20583;-30
2023/06/14 10:16:00;;;;;;;4.45;3.30;;;;;;;;;;5073664;28;20215;-32
2023/06/14 10:18:33;;;;;;;13.45;3.13;;;;;;;;;;5083941;28;20208;-33
2023/06/14 10:21:08;;;;;;;3.05;2.70;;;;;;;;;;5081277;28;20235;-33
2023/06/14 10:23:37;;;;;;;4.13;3.50;;;;;;;;;;5080294;28;20210;-28
2023/06/14 10:26:04;;;;;;;3.53;3.22;;;;;;;;;;5089904;28;20221;-28
2023/06/14 10:28:32;;;;;;;4.90;3.15;;;;;;;;;;5091276;28;20194;-31
2023/06/14 10:31:10;;;;;;;4.60;2.92;;;;;;;;;;5096601;28;20556;-29
2023/06/14 10:33:37;;;;;;;3.45;3.15;;;;;;;;;;5088466;28;20262;-30
2023/06/14 10:36:11;;;;;;;3.30;3.00;;;;;;;;;;5095292;28;20203;-28
2023/06/14 10:38:39;;;;;;;3.80;3.25;;;;;;;;;;5085240;28;20203;-31
2023/06/14 10:41:07;;;;;;;3.20;2.90;;;;;;;;;;5094553;28;20305;-31
2023/06/14 10:43:34;;;;;;;5.53;3.38;;;;;;;;;;5087066;28;20206;-30
2023/06/14 10:46:17;;;;;;;3.45;3.15;;;;;;;;;;5075007;28;20644;-31
2023/06/14 10:48:44;;;;;;;3.90;3.00;;;;;;;;;;5079354;28;20195;-30
2023/06/14 10:51:20;;;;;;;4.68;3.22;;;;;;;;;;5093831;28;20702;-31
2023/06/14 10:53:48;;;;;;;4.93;3.25;;;;;;;;;;5081693;28;20208;-32
2023/06/14 10:56:26;;;;;;;2.97;2.78;;;;;;;;;;5095438;28;20214;-31
2023/06/14 10:58:53;;;;;;;3.85;3.53;;;;;;;;;;5079881;28;20206;-29
2023/06/14 11:01:35;;;;;;;5.07;3.17;;;;;;;;;;5072935;28;20231;-30
2023/06/14 11:04:09;;;;;;;5.97;2.78;;;;;;;;;;5086197;28;20198;-32
2023/06/14 11:06:46;;;;;;;4.38;3.00;;;;;;;;;;5083433;28;20252;-32
2023/06/14 11:09:30;;;;;;;3.85;3.15;;;;;;;;;;5089240;28;20228;-31
2023/06/14 11:11:57;;;;;;;4.25;2.90;;;;;;;;;;5088551;28;20302;-31
2023/06/14 11:14:25;;;;;;;4.25;3.00;;;;;;;;;;5083045;28;20207;-33
2023/06/14 11:16:53;;;;;;;3.35;3.05;;;;;;;;;;5086467;28;20199;-29
2023/06/14 11:19:20;;;;;;;4.88;2.97;;;;;;;;;;5077302;28;20291;-31
2023/06/14 11:21:49;;;;;;;4.30;2.88;;;;;;;;;;5071020;28;20577;-31
2023/06/14 11:24:16;;;;;;;3.83;3.42;;;;;;;;;;5082258;28;20513;-30
2023/06/14 11:26:43;;;;;;;5.95;3.67;;;;;;;;;;5081141;28;20215;-32
2023/06/14 11:29:11;;;;;;;6.65;2.95;;;;;;;;;;5091121;28;20212;-27
2023/06/14 11:31:38;;;;;;;4.05;2.80;;;;;;;;;;5092726;28;20722;-31
2023/06/14 11:34:07;;;;;;;3.28;2.90;;;;;;;;;;5094635;28;20206;-32
2023/06/14 11:36:35;;;;;;;6.78;2.78;;;;;;;;;;5091518;28;20285;-31
2023/06/14 11:39:05;;;;;;;4.28;3.10;;;;;;;;;;5084358;28;20202;-30
2023/06/14 11:41:50;;;;;;;3.38;3.08;;;;;;;;;;5090279;28;20224;-29
2023/06/14 11:44:18;;;;;;;4.82;3.40;;;;;;;;;;5084916;28;20190;-32
2023/06/14 11:46:46;;;;;;;4.32;2.80;;;;;;;;;;5083231;28;20201;-28
2023/06/14 11:49:14;;;;;;;3.72;2.78;;;;;;;;;;5087352;28;20207;-30
2023/06/14 11:51:44;;;;;;;3.45;3.10;;;;;;;;;;5083531;28;20212;-32
2023/06/14 11:54:11;;;;;;;3.28;2.92;;;;;;;;;;5084612;28;20205;-30
2023/06/14 11:56:39;;;;;;;3.97;3.38;;;;;;;;;;5084277;28;20212;-28
2023/06/14 11:59:06;;;;;;;6.90;2.88;;;;;;;;;;5078541;28;20410;-30
2023/06/14 12:01:34;;;;;;;3.47;3.17;;;;;;;;;;5070995;28;20238;-30
2023/06/14 12:04:01;;;;;;;5.18;3.10;;;;;;;;;;5091047;28;20203;-30
2023/06/14 12:06:32;;;;;;;4.97;2.75;;;;;;;;;;5081420;28;20705;-30
2023/06/14 12:09:01;;;;;;;3.38;3.08;;;;;;;;;;5092157;28;20226;-31
2023/06/14 12:11:30;;;;;;;4.88;2.75;;;;;;;;;;5088812;28;20276;-30
2023/06/14 12:13:58;;;;;;;3.20;2.88;;;;;;;;;;5081599;28;20195;-32
2023/06/14 12:16:31;;;;;;;6.22;2.85;;;;;;;;;;5094291;28;20206;-32
2023/06/14 12:19:02;;;;;;;4.80;3.15;;;;;;;;;;5090412;28;20198;-28
2023/06/14 12:21:30;;;;;;;4.45;2.60;;;;;;;;;;5086912;28;20274;-31
2023/06/14 12:23:57;;;;;;;4.15;2.92;;;;;;;;;;5094284;28;20202;-29
2023/06/14 12:26:29;;;;;;;5.30;2.97;;;;;;;;;;5088394;28;20208;-32
2023/06/14 12:28:56;;;;;;;4.55;3.10;;;;;;;;;;5089864;28;20208;-29
2023/06/14 12:31:23;;;;;;;5.65;3.40;;;;;;;;;;5092359;28;20225;-31
2023/06/14 12:33:51;;;;;;;2.97;2.78;;;;;;;;;;5098240;28;20246;-29
2023/06/14 12:36:18;;;;;;;3.50;3.03;;;;;;;;;;5076428;28;20211;-32
2023/06/14 12:38:46;;;;;;;4.00;2.78;;;;;;;;;;5075751;28;20648;-30
2023/06/14 12:41:14;;;;;;;3.13;2.75;;;;;;;;;;5097919;28;20239;-28
2023/06/14 12:43:41;;;;;;;2.72;2.50;;;;;;;;;;5078621;28;20742;-31
2023/06/14 12:46:09;;;;;;;3.83;2.80;;;;;;;;;;5074985;28;20202;-30
2023/06/14 12:48:36;;;;;;;3.20;2.90;;;;;;;;;;5096152;28;20197;-32
2023/06/14 12:51:03;;;;;;;3.25;2.95;;;;;;;;;;5090375;28;20213;-31
2023/06/14 12:53:30;;;;;;;4.53;3.00;;;;;;;;;;5074594;28;20198;-31
2023/06/14 12:55:58;;;;;;;4.72;3.25;;;;;;;;;;5078063;28;20204;-32
2023/06/14 12:58:25;;;;;;;4.15;3.20;;;;;;;;;;5083836;28;20198;-30
2023/06/14 13:00:52;;;;;;;5.32;2.72;;;;;;;;;;5090332;28;20223;-29
2023/06/14 13:03:20;;;;;;;3.33;2.88;;;;;;;;;;5081847;28;20202;-32
2023/06/14 13:05:47;;;;;;;2.80;2.53;;;;;;;;;;5075078;28;20241;-30
2023/06/14 13:08:14;;;;;;;4.03;2.85;;;;;;;;;;5080100;28;20214;-30
2023/06/14 13:10:41;;;;;;;3.80;3.25;;;;;;;;;;5098379;28;20572;-32
2023/06/14 13:13:12;;;;;;;5.70;2.90;;;;;;;;;;5077239;28;20200;-30
2023/06/14 13:15:39;;;;;;;6.00;3.03;;;;;;;;;;5069938;28;20658;-32
2023/06/14 13:18:06;;;;;;;2.90;2.70;;;;;;;;;;5077658;28;20195;-28
2023/06/14 13:20:33;;;;;;;3.28;2.97;;;;;;;;;;5082059;28;20234;-31
2023/06/14 13:23:02;;;;;;;4.13;3.10;;;;;;;;;;5066535;28;20202;-28
2023/06/14 13:25:29;;;;;;;7.28;3.58;;;;;;;;;;5083693;28;20208;-31
2023/06/14 13:27:56;;;;;;;3.72;3.42;;;;;;;;;;5077079;28;20221;-31
2023/06/14 13:30:25;;;;;;;3.28;2.90;;;;;;;;;;5077424;28;20740;-31
2023/06/14 13:32:53;;;;;;;5.90;2.90;;;;;;;;;;5089211;28;20202;-30
2023/06/14 13:35:20;;;;;;;3.10;2.80;;;;;;;;;;5090274;28;20568;-29
2023/06/14 13:37:56;;;;;;;2.85;2.45;;;;;;;;;;5082137;28;20208;-31
2023/06/14 13:40:34;;;;;;;4.43;3.10;;;;;;;;;;5101346;28;20226;-31
2023/06/14 13:43:01;;;;;;;3.80;3.10;;;;;;;;;;5089737;28;20205;-30
2023/06/14 13:45:30;;;;;;;3.05;2.72;;;;;;;;;;5092929;28;20662;-31
2023/06/14 13:47:57;;;;;;;3.40;3.10;;;;;;;;;;5088996;28;20233;-31
2023/06/14 13:50:24;;;;;;;5.22;3.08;;;;;;;;;;5078632;28;20227;-27
2023/06/14 13:52:51;;;;;;;3.80;2.78;;;;;;;;;;5070881;28;20291;-28
2023/06/14 13:55:20;;;;;;;4.18;2.97;;;;;;;;;;5092967;28;20208;-32
2023/06/14 13:57:47;;;;;;;2.80;2.60;;;;;;;;;;5089106;28;20198;-31
2023/06/14 14:00:14;;;;;;;3.20;2.88;;;;;;;;;;5073159;28;20234;-31
2023/06/14 14:02:43;;;;;;;3.92;2.90;;;;;;;;;;5078953;28;20656;-31
2023/06/14 14:05:10;;;;;;;4.68;3.00;;;;;;;;;;5094625;28;20203;-32
2023/06/14 14:07:39;;;;;;;3.20;2.90;;;;;;;;;;5089801;28;20192;-29
2023/06/14 14:10:07;;;;;;;4.28;3.10;;;;;;;;;;5087450;28;20224;-28
2023/06/14 14:12:34;;;;;;;3.30;3.00;;;;;;;;;;5093103;28;20399;-30
2023/06/14 14:15:03;;;;;;;3.65;2.70;;;;;;;;;;5076155;28;20265;-29
2023/06/14 14:17:30;;;;;;;3.65;2.50;;;;;;;;;;5091593;28;20201;-30
2023/06/14 14:19:59;;;;;;;2.88;2.60;;;;;;;;;;5093885;28;20226;-29
2023/06/14 14:22:26;;;;;;;4.15;3.00;;;;;;;;;;5090388;28;20222;-28
2023/06/14 14:24:53;;;;;;;4.03;2.63;;;;;;;;;;5092506;28;20212;-32
2023/06/14 14:27:20;;;;;;;5.07;3.20;;;;;;;;;;5083042;28;20193;-32
2023/06/14 14:29:47;;;;;;;4.03;3.05;;;;;;;;;;5075046;28;20207;-28
2023/06/14 14:32:15;;;;;;;3.05;2.83;;;;;;;;;;5087029;28;20208;-32
2023/06/14 14:34:42;;;;;;;5.65;2.90;;;;;;;;;;5087199;28;20196;-32
2023/06/14 14:37:10;;;;;;;3.60;2.95;;;;;;;;;;5079727;28;20207;-32
2023/06/14 14:39:38;;;;;;;3.35;3.05;;;;;;;;;;5080897;28;20202;-31
2023/06/14 14:42:07;;;;;;;3.10;2.80;;;;;;;;;;5085090;28;20223;-28
2023/06/14 14:44:34;;;;;;;3.53;2.88;;;;;;;;;;5077330;28;20197;-29
2023/06/14 14:47:02;;;;;;;3.20;2.90;;;;;;;;;;5087747;28;20196;-30
2023/06/14 14:49:29;;;;;;;4.38;2.75;;;;;;;;;;5094137;28;20235;-32